Time;durP1;ratioP1;P1;durP2;ratioP2;P2;SDS_P1;SDS_P2;PMS_P1;PMS_P2;Temp;Humidity;BMP_temperature;BMP_pressure;BME280_temperature;BME280_humidity;BME280_pressure;Samples;Min_cycle;Max_cycle;Signal;HPM_P1;HPM_P2
2021/06/29 00:00:32;;;;;;;15.08;7.35;;;;;;;22.28;57.12;100610.67;5086523;57;1140834;-81
2021/06/29 00:05:40;;;;;;;14.05;7.20;;;;;;;22.18;57.45;100606.61;5086449;56;1140967;-79
2021/06/29 00:10:47;;;;;;;19.02;8.05;;;;;;;22.19;57.37;100599.69;5064421;57;1140924;-80
2021/06/29 00:15:53;;;;;;;19.62;6.97;;;;;;;21.96;57.42;100597.16;5053433;57;1140720;-79
2021/06/29 00:20:58;;;;;;;11.75;7.35;;;;;;;22.02;58.23;100607.18;5053344;57;1140810;-81
2021/06/29 00:26:05;;;;;;;21.55;9.88;;;;;;;22.11;58.27;100603.87;5052959;57;1140934;-80
2021/06/29 00:31:12;;;;;;;19.05;9.10;;;;;;;22.19;58.25;100603.73;5053111;57;1140765;-83
2021/06/29 00:36:18;;;;;;;15.03;8.77;;;;;;;22.18;57.90;100604.75;5053406;57;1140743;-84
2021/06/29 00:41:24;;;;;;;19.15;9.53;;;;;;;21.95;57.43;100596.83;5076644;56;1140759;-84
2021/06/29 00:46:30;;;;;;;15.58;8.13;;;;;;;21.82;58.05;100585.92;5107099;56;1140696;-78
2021/06/29 00:51:36;;;;;;;17.77;7.28;;;;;;;21.68;58.18;100573.34;5107115;56;1140998;-82
2021/06/29 00:56:44;;;;;;;25.37;9.38;;;;;;;21.60;58.62;100571.58;5106310;56;1140771;-81
2021/06/29 01:01:50;;;;;;;26.10;10.20;;;;;;;21.35;58.59;100574.28;5106903;56;1140815;-82
2021/06/29 01:06:56;;;;;;;27.52;11.03;;;;;;;21.29;58.80;100570.98;5106699;57;1143002;-83
2021/06/29 01:12:02;;;;;;;20.90;9.88;;;;;;;21.33;59.41;100576.32;5128358;56;1142846;-81
2021/06/29 01:17:08;;;;;;;21.23;9.50;;;;;;;21.39;59.49;100568.31;5141692;56;1140797;-80
2021/06/29 01:22:15;;;;;;;11.48;6.95;;;;;;;21.46;59.67;100575.14;5141721;56;1140736;-80
2021/06/29 01:27:33;;;;;;;15.48;7.70;;;;;;;21.39;59.14;100566.13;5141663;56;1140769;-81
2021/06/29 01:32:36;;;;;;;13.15;8.10;;;;;;;21.28;59.41;100559.89;5141085;56;1140689;-83
2021/06/29 01:37:41;;;;;;;20.97;8.73;;;;;;;21.27;59.56;100559.57;5141547;56;1140884;-79
2021/06/29 01:42:57;;;;;;;18.73;9.48;;;;;;;21.20;59.19;100558.16;5094987;56;1140677;-81
2021/06/29 01:48:03;;;;;;;10.75;7.08;;;;;;;20.99;59.32;100531.14;5076837;57;1140665;-82
2021/06/29 01:53:08;;;;;;;18.30;7.55;;;;;;;20.99;59.32;100531.14;5077151;57;1141188;-78
2021/06/29 01:58:19;;;;;;;11.38;6.65;;;;;;;20.80;59.21;100535.21;5077005;57;1140684;-82
2021/06/29 02:03:21;;;;;;;9.73;5.33;;;;;;;20.62;59.65;100534.76;5076616;56;1140808;-77
2021/06/29 02:08:27;;;;;;;10.32;5.08;;;;;;;20.33;60.10;100529.60;5076934;57;1138618;-85
2021/06/29 02:13:33;;;;;;;7.67;5.70;;;;;;;20.18;60.67;100534.61;5081407;57;1140662;-79
2021/06/29 02:18:38;;;;;;;6.95;5.65;;;;;;;20.08;61.09;100528.66;5085794;57;1138507;-80
2021/06/29 02:23:44;;;;;;;13.55;5.78;;;;;;;19.96;61.44;100526.91;5085811;57;1138563;-79
2021/06/29 02:28:50;;;;;;;17.48;6.75;;;;;;;19.90;61.47;100522.25;5085560;57;1140811;-78
2021/06/29 02:33:55;;;;;;;10.78;5.60;;;;;;;20.01;61.82;100525.88;5085516;57;1140703;-80
2021/06/29 02:39:01;;;;;;;14.75;6.85;;;;;;;20.08;61.85;100534.87;5085622;56;1140649;-83
2021/06/29 02:44:08;;;;;;;10.72;6.83;;;;;;;20.12;61.80;100532.66;5160216;56;1140809;-84
2021/06/29 02:49:13;;;;;;;12.58;6.72;;;;;;;20.12;61.63;100531.32;5161789;56;1140670;-77
2021/06/29 02:54:19;;;;;;;22.65;9.95;;;;;;;20.09;61.69;100527.65;5161947;56;1140749;-79
2021/06/29 02:59:25;;;;;;;20.95;10.40;;;;;;;20.11;61.73;100528.30;5161611;56;1140714;-77
2021/06/29 03:04:31;;;;;;;25.62;10.25;;;;;;;20.11;61.71;100525.63;5161342;56;1142895;-76
2021/06/29 03:09:37;;;;;;;29.92;9.38;;;;;;;20.08;61.67;100524.13;5161257;56;1142935;-80
2021/06/29 03:14:43;;;;;;;38.20;10.90;;;;;;;20.08;61.74;100521.95;5153176;56;1140704;-82
2021/06/29 03:19:48;;;;;;;32.33;11.05;;;;;;;20.08;61.75;100525.97;5141110;56;1142750;-77
2021/06/29 03:24:54;;;;;;;28.87;12.13;;;;;;;20.12;62.10;100521.92;5140999;56;1142778;-79
2021/06/29 03:29:59;;;;;;;21.82;10.72;;;;;;;20.08;61.90;100530.00;5141109;56;1142718;-80
2021/06/29 03:35:07;;;;;;;21.48;10.82;;;;;;;19.95;62.01;100531.45;5141229;56;1142659;-82
2021/06/29 03:40:13;;;;;;;18.52;10.18;;;;;;;19.86;62.58;100535.19;5128366;56;1142635;-83
2021/06/29 03:45:19;;;;;;;16.50;8.90;;;;;;;19.84;62.99;100531.87;5076260;57;1142628;-83
2021/06/29 03:50:26;;;;;;;37.10;11.35;;;;;;;19.93;63.56;100536.66;5076252;57;1140652;-84
2021/06/29 03:55:31;;;;;;;31.33;10.80;;;;;;;20.03;63.49;100543.45;5076150;57;1142777;-80
2021/06/29 04:00:37;;;;;;;48.48;12.65;;;;;;;20.19;63.63;100540.31;5077003;57;1142906;-81
2021/06/29 04:05:43;;;;;;;36.02;13.18;;;;;;;20.27;63.52;100540.25;5076903;57;1143029;-78
2021/06/29 04:10:49;;;;;;;40.78;13.80;;;;;;;20.31;63.33;100543.75;5076921;57;1142743;-81
2021/06/29 04:15:54;;;;;;;37.98;15.13;;;;;;;20.31;63.29;100542.91;5069557;57;1142846;-82
2021/06/29 04:21:00;;;;;;;29.63;12.98;;;;;;;20.31;63.28;100549.63;5052783;57;1143011;-80
2021/06/29 04:26:06;;;;;;;62.54;20.06;;;;;;;20.25;63.52;100540.44;5052959;57;1142842;-85
2021/06/29 04:31:12;;;;;;;59.35;20.48;;;;;;;20.26;63.87;100538.58;5052766;57;1142997;-85
2021/06/29 04:36:18;;;;;;;43.90;17.98;;;;;;;20.24;64.27;100540.11;5052885;57;1142743;-85
2021/06/29 04:41:24;;;;;;;45.20;18.27;;;;;;;20.32;64.93;100534.64;5076611;57;1143010;-86
2021/06/29 04:46:30;;;;;;;43.87;18.15;;;;;;;20.47;64.94;100539.28;5102039;56;1142842;-85
2021/06/29 04:51:36;;;;;;;36.75;15.48;;;;;;;20.60;64.91;100528.73;5107025;56;1142922;-85
2021/06/29 04:56:41;;;;;;;54.04;35.26;;;;;;;20.71;65.03;100527.76;5106788;56;1142853;-83
2021/06/29 05:01:47;;;;;;;31.95;12.03;;;;;;;20.80;64.93;100531.69;5106796;56;1142765;-86
2021/06/29 05:06:52;;;;;;;12.43;7.47;;;;;;;20.96;64.66;100535.54;5106675;56;1142903;-81
2021/06/29 05:11:58;;;;;;;18.02;9.20;;;;;;;21.12;64.10;100541.23;5107267;57;1140756;-80
2021/06/29 05:17:06;;;;;;;26.88;8.97;;;;;;;21.26;64.07;100541.76;5132157;56;1145572;-83
2021/06/29 05:22:12;;;;;;;23.05;12.47;;;;;;;21.43;64.11;100539.18;5141917;56;1140859;-86
2021/06/29 05:27:18;;;;;;;20.40;9.48;;;;;;;21.57;64.01;100526.20;5141688;56;1142931;-83
2021/06/29 05:32:23;;;;;;;14.98;7.12;;;;;;;21.72;63.91;100515.37;5142110;56;1140805;-83
2021/06/29 05:37:29;;;;;;;17.73;6.80;;;;;;;21.89;63.75;100515.97;5142020;56;1140695;-86
2021/06/29 05:42:35;;;;;;;40.52;9.90;;;;;;;22.02;63.44;100518.81;5098166;56;1140711;-86
2021/06/29 05:47:42;;;;;;;38.33;7.90;;;;;;;22.16;63.03;100513.02;5077116;57;1140700;-83
2021/06/29 05:52:47;;;;;;;6.40;5.80;;;;;;;22.29;62.74;100517.20;5077180;57;1140705;-84
2021/06/29 05:57:53;;;;;;;11.48;5.95;;;;;;;22.45;62.30;100513.70;5077090;57;1138597;-88
2021/06/29 06:02:58;;;;;;;11.85;6.58;;;;;;;22.61;62.17;100496.91;5077000;57;1140811;-79
2021/06/29 06:08:05;;;;;;;10.60;6.67;;;;;;;22.77;61.95;100485.81;5077445;56;1140675;-88
2021/06/29 06:13:11;;;;;;;11.28;10.18;;;;;;;22.92;61.48;100490.56;5077531;56;1140856;-84
2021/06/29 06:18:16;;;;;;;12.90;5.47;;;;;;;23.06;61.43;100495.02;5074480;57;1143021;-85
2021/06/29 06:23:22;;;;;;;11.35;6.70;;;;;;;23.20;60.63;100493.72;5053281;57;1140949;-82
2021/06/29 06:28:28;;;;;;;13.45;5.80;;;;;;;23.34;60.51;100487.33;5049931;57;1140748;-86
2021/06/29 06:33:34;;;;;;;9.40;5.67;;;;;;;23.53;60.45;100495.21;5053305;57;1140720;-86
2021/06/29 06:38:40;;;;;;;5.75;5.22;;;;;;;23.68;59.37;100504.77;5053108;57;1138793;-80
2021/06/29 06:43:46;;;;;;;5.75;5.15;;;;;;;23.85;58.77;100497.11;5102603;56;1138769;-82
2021/06/29 06:48:52;;;;;;;4.85;4.42;;;;;;;24.02;57.89;100502.43;5107314;56;1138597;-86
2021/06/29 06:53:58;;;;;;;5.17;4.65;;;;;;;24.19;57.73;100510.45;5107168;57;1138672;-84
2021/06/29 07:14:33;;;;;;;4.87;4.42;;;;;;;24.54;56.67;100504.33;5264592;56;22192;-83
2021/06/29 07:19:39;;;;;;;6.45;4.55;;;;;;;24.94;55.31;100500.72;5137828;57;21146;-82
2021/06/29 07:24:45;;;;;;;4.65;3.90;;;;;;;25.12;55.45;100502.22;5141542;57;21497;-85
2021/06/29 07:29:51;;;;;;;7.42;3.77;;;;;;;25.30;52.30;100498.29;5221327;56;21195;-87
2021/06/29 07:34:57;;;;;;;4.67;3.40;;;;;;;25.47;52.16;100484.56;5203229;56;21184;-84
2021/06/29 07:40:03;;;;;;;4.10;3.70;;;;;;;25.65;50.83;100479.80;5143748;56;21190;-86
2021/06/29 07:45:10;;;;;;;3.58;3.27;;;;;;;25.83;49.31;100484.45;5064569;58;21237;-85
2021/06/29 07:50:16;;;;;;;2.90;2.70;;;;;;;25.89;48.78;100480.35;5140836;57;21177;-86
2021/06/29 07:55:21;;;;;;;6.58;3.47;;;;;;;26.08;47.53;100489.91;5140729;57;22565;-84
2021/06/29 08:00:27;;;;;;;4.87;3.02;;;;;;;26.26;47.90;100492.68;5063353;58;21187;-87
2021/06/29 08:05:33;;;;;;;3.27;3.08;;;;;;;26.41;45.90;100493.20;5141855;57;21190;-81
2021/06/29 08:10:39;;;;;;;2.85;2.65;;;;;;;26.56;43.77;100492.31;5109894;57;21202;-81
2021/06/29 08:15:45;;;;;;;5.17;2.83;;;;;;;26.70;45.23;100478.08;5136164;57;21199;-87
2021/06/29 08:20:52;;;;;;;2.75;2.55;;;;;;;26.82;45.68;100460.52;5136621;57;21222;-84
2021/06/29 08:25:58;;;;;;;7.50;3.20;;;;;;;27.03;44.75;100467.41;5136519;57;21194;-85
2021/06/29 08:31:06;;;;;;;4.87;3.27;;;;;;;27.16;44.34;100472.66;5135871;57;21195;-83
2021/06/29 08:36:11;;;;;;;9.33;3.30;;;;;;;27.20;44.65;100465.69;5135949;57;21136;-82
2021/06/29 08:41:18;;;;;;;3.20;2.92;;;;;;;27.54;44.27;100465.55;5136326;57;21259;-83
2021/06/29 08:46:24;;;;;;;3.00;2.80;;;;;;;27.81;42.29;100467.35;5140035;57;21134;-83
2021/06/29 08:51:31;;;;;;;4.10;2.12;;;;;;;27.96;41.99;100459.05;5136162;57;21479;-84
2021/06/29 08:56:37;;;;;;;3.25;3.00;;;;;;;28.12;39.78;100460.25;5140384;57;21190;-88
2021/06/29 09:01:42;;;;;;;2.42;2.22;;;;;;;28.16;38.54;100464.69;5136032;57;21585;-86
2021/06/29 09:06:48;;;;;;;4.03;2.20;;;;;;;28.15;37.57;100459.78;5140487;57;21178;-83
2021/06/29 09:11:58;;;;;;;2.20;2.10;;;;;;;28.29;37.12;100461.77;5137211;57;21463;-83
2021/06/29 09:17:20;;;;;;;2.50;2.35;;;;;;;28.42;36.99;100463.42;5144877;57;21304;-84
2021/06/29 09:22:33;;;;;;;9.13;2.92;;;;;;;28.60;36.34;100452.41;5224851;56;21191;-80
2021/06/29 09:27:45;;;;;;;6.10;2.60;;;;;;;28.64;37.42;100446.78;5224889;56;21222;-83
2021/06/29 09:32:52;;;;;;;3.22;2.45;;;;;;;28.81;36.72;100445.02;5220518;56;21352;-83
2021/06/29 09:37:58;;;;;;;2.40;2.20;;;;;;;29.03;37.38;100450.08;5224130;56;21506;-82
2021/06/29 09:43:16;;;;;;;2.02;1.92;;;;;;;29.24;37.21;100444.51;5223815;56;21191;-81
2021/06/29 09:48:36;;;;;;;2.77;2.52;;;;;;;29.44;36.70;100436.47;5224128;56;21116;-85
2021/06/29 09:53:43;;;;;;;2.67;2.15;;;;;;;29.51;34.20;100439.31;5217397;55;21215;-81
2021/06/29 09:58:52;;;;;;;12.40;3.12;;;;;;;29.60;35.48;100437.86;5223733;56;21186;-82
2021/06/29 10:04:04;;;;;;;2.25;2.05;;;;;;;29.68;33.84;100432.52;5223610;56;21581;-83
2021/06/29 10:09:17;;;;;;;2.40;2.17;;;;;;;29.65;32.36;100424.30;5225766;56;21136;-82
2021/06/29 10:14:24;;;;;;;2.42;2.30;;;;;;;29.73;33.94;100407.55;5233247;56;21215;-80
2021/06/29 10:24:53;;;;;;;5.40;2.20;;;;;;;30.02;34.53;100401.48;5232885;56;21624;-78
2021/06/29 10:30:00;;;;;;;6.87;2.12;;;;;;;30.22;35.63;100392.79;5169979;56;21174;-82
2021/06/29 10:35:06;;;;;;;6.83;2.60;;;;;;;30.31;33.60;100387.17;5159799;57;21205;-85
2021/06/29 10:40:14;;;;;;;5.42;2.72;;;;;;;30.55;34.05;100377.44;5159669;57;21552;-85
2021/06/29 10:45:20;;;;;;;5.28;1.90;;;;;;;30.75;34.49;100380.39;5161001;57;21567;-84
2021/06/29 10:50:26;;;;;;;1.87;1.45;;;;;;;30.87;32.26;100381.08;5161333;57;21190;-81
2021/06/29 10:55:32;;;;;;;1.67;1.67;;;;;;;30.87;30.85;100374.78;5126907;57;21665;-83
2021/06/29 11:00:37;;;;;;;1.95;1.85;;;;;;;30.87;30.17;100362.50;5159238;57;21173;-80
2021/06/29 11:05:45;;;;;;;3.12;2.02;;;;;;;30.96;31.44;100360.98;5080593;58;21258;-81
2021/06/29 11:10:52;;;;;;;4.28;1.87;;;;;;;31.09;30.82;100360.02;5210832;56;21196;-81
2021/06/29 11:15:59;;;;;;;5.03;1.80;;;;;;;31.18;31.78;100367.77;5149942;57;21132;-81
2021/06/29 11:21:08;;;;;;;2.08;1.80;;;;;;;31.24;30.19;100363.48;5222813;56;21114;-81
2021/06/29 11:26:18;;;;;;;2.12;1.72;;;;;;;31.21;30.25;100350.33;5222925;56;21194;-83
2021/06/29 11:31:33;;;;;;;1.90;1.80;;;;;;;31.23;28.83;100351.44;5143015;57;21194;-83
2021/06/29 11:36:45;;;;;;;2.92;2.00;;;;;;;31.20;29.54;100342.38;5222443;56;21690;-82
2021/06/29 11:41:53;;;;;;;1.80;1.67;;;;;;;31.16;29.62;100334.45;5142371;57;21143;-81
2021/06/29 11:47:15;;;;;;;3.30;1.90;;;;;;;31.23;30.13;100314.55;5222485;56;21178;-81
2021/06/29 11:52:26;;;;;;;1.60;1.60;;;;;;;31.32;30.53;100310.27;5142488;57;21485;-82
2021/06/29 11:57:43;;;;;;;;;;;;;;;31.30;29.73;100312.44;5226666;56;21205;-80
2021/06/29 12:02:52;;;;;;;1.70;1.60;;;;;;;31.32;30.72;100305.59;5115006;58;20439;-82
2021/06/29 12:08:02;;;;;;;5.95;2.10;;;;;;;31.43;29.88;100304.62;5115869;57;21175;-82
2021/06/29 12:13:11;;;;;;;6.80;1.55;;;;;;;31.57;29.26;100291.32;5223554;56;21174;-80
2021/06/29 12:18:25;;;;;;;1.80;1.70;;;;;;;31.75;29.56;100295.03;5142063;57;21199;-83
2021/06/29 12:23:33;;;;;;;2.72;1.60;;;;;;;31.91;29.35;100274.61;5228622;56;22069;-81
2021/06/29 12:28:41;;;;;;;1.72;1.40;;;;;;;32.04;28.66;100265.92;5153295;57;21202;-81
2021/06/29 12:33:50;;;;;;;1.80;1.70;;;;;;;32.20;28.75;100272.31;5233630;56;21744;-80
2021/06/29 12:39:01;;;;;;;1.52;1.42;;;;;;;32.26;27.29;100262.47;5153344;57;21166;-84
2021/06/29 12:44:09;;;;;;;;;;;;;;;32.29;27.46;100257.02;5234806;56;21456;-80
2021/06/29 12:49:25;;;;;;;1.98;1.80;;;;;;;32.26;27.53;100250.16;5222637;56;20231;-83
2021/06/29 12:54:26;;;;;;;1.32;1.27;;;;;;;32.31;27.82;100250.73;5142347;57;21273;-81
2021/06/29 12:59:46;;;;;;;1.70;1.70;;;;;;;32.43;25.35;100237.62;5184267;56;21178;-81
2021/06/29 13:04:53;;;;;;;3.02;1.80;;;;;;;32.44;26.64;100237.34;5143420;57;21211;-81
2021/06/29 13:10:06;;;;;;;4.60;2.00;;;;;;;32.49;26.49;100231.90;5217145;56;21123;-82
2021/06/29 13:15:15;;;;;;;6.37;2.00;;;;;;;32.47;27.51;100223.13;5222328;56;21250;-81
2021/06/29 13:20:25;;;;;;;3.80;1.42;;;;;;;32.54;26.48;100219.32;5143610;57;21633;-82
2021/06/29 13:25:43;;;;;;;4.03;1.57;;;;;;;32.58;26.21;100223.14;5223523;56;21647;-85
2021/06/29 13:30:53;;;;;;;4.22;1.85;;;;;;;32.43;25.62;100203.39;5144857;57;21211;-87
2021/06/29 13:35:59;;;;;;;2.27;1.67;;;;;;;32.37;27.38;100197.11;5224130;56;21119;-86
2021/06/29 13:41:06;;;;;;;3.85;2.10;;;;;;;32.63;27.15;100187.55;5145074;57;21476;-81
2021/06/29 13:46:19;;;;;;;1.80;1.70;;;;;;;32.76;27.59;100179.65;5225091;56;21727;-82
2021/06/29 13:51:30;;;;;;;3.42;2.55;;;;;;;32.88;26.60;100175.81;5144912;57;21657;-85
2021/06/29 13:56:43;;;;;;;3.70;2.80;;;;;;;32.97;26.74;100169.52;5225605;56;21503;-81
2021/06/29 14:01:49;;;;;;;2.90;2.00;;;;;;;33.01;27.23;100162.37;5224675;56;21225;-82
2021/06/29 14:07:09;;;;;;;1.90;1.80;;;;;;;33.09;24.81;100156.89;5145305;57;21190;-84
2021/06/29 14:12:23;;;;;;;2.90;2.45;;;;;;;32.96;26.08;100156.09;5225487;56;21238;-80
2021/06/29 14:17:34;;;;;;;2.02;1.92;;;;;;;33.05;26.46;100150.31;5140568;57;21199;-82
2021/06/29 14:22:40;;;;;;;7.92;3.05;;;;;;;33.24;26.24;100140.97;5140773;57;21183;-82
2021/06/29 14:27:50;;;;;;;3.05;2.05;;;;;;;33.35;25.46;100132.47;5136081;57;21187;-85
2021/06/29 14:32:57;;;;;;;5.37;2.10;;;;;;;33.41;25.05;100123.14;5140163;57;21797;-82
2021/06/29 14:38:00;;;;;;;4.08;2.10;;;;;;;33.43;26.23;100118.20;5135377;57;21585;-83
2021/06/29 14:43:08;;;;;;;7.30;2.80;;;;;;;33.39;25.69;100108.06;5140268;57;21478;-85
2021/06/29 14:48:14;;;;;;;3.10;2.65;;;;;;;33.22;25.76;100104.80;5134786;57;21210;-83
2021/06/29 14:53:20;;;;;;;3.20;2.33;;;;;;;33.05;25.48;100096.33;5141360;57;21249;-83
2021/06/29 14:58:26;;;;;;;1.80;1.80;;;;;;;32.90;25.80;100085.41;5137348;57;21238;-84
2021/06/29 15:03:31;;;;;;;4.90;1.85;;;;;;;32.83;26.68;100082.97;5141848;57;21198;-82
2021/06/29 15:08:37;;;;;;;2.12;1.87;;;;;;;32.88;26.02;100085.41;5137441;57;21194;-86
2021/06/29 15:13:43;;;;;;;1.82;1.62;;;;;;;32.84;26.33;100081.88;5141443;57;21196;-86
2021/06/29 15:18:49;;;;;;;2.20;1.82;;;;;;;32.82;26.23;100072.28;5137253;57;21198;-85
2021/06/29 15:23:55;;;;;;;4.87;2.12;;;;;;;32.80;26.38;100066.25;5142038;57;21449;-88
2021/06/29 15:29:02;;;;;;;5.53;2.08;;;;;;;32.76;26.14;100064.61;5137932;57;21187;-82
2021/06/29 15:34:08;;;;;;;5.08;2.72;;;;;;;32.64;26.63;100053.65;5138271;57;21231;-89
2021/06/29 15:39:14;;;;;;;2.02;1.85;;;;;;;32.64;27.13;100054.47;5137799;57;21128;-88
2021/06/29 15:44:20;;;;;;;2.95;2.60;;;;;;;32.64;26.92;100050.36;5137803;57;21207;-85
2021/06/29 15:49:26;;;;;;;5.60;2.40;;;;;;;32.64;26.54;100046.80;5137702;57;21112;-81
2021/06/29 15:54:31;;;;;;;13.22;3.58;;;;;;;32.66;26.85;100044.61;5137654;57;21257;-86
2021/06/29 15:59:36;;;;;;;6.95;2.27;;;;;;;32.65;26.60;100041.59;5137831;57;21116;-81
2021/06/29 16:04:42;;;;;;;6.15;2.20;;;;;;;32.61;26.56;100034.47;5137635;57;21172;-83
2021/06/29 16:09:48;;;;;;;2.27;2.12;;;;;;;32.63;27.05;100035.57;5132725;57;21225;-86
2021/06/29 16:14:53;;;;;;;2.87;2.55;;;;;;;32.70;26.99;100023.77;5128241;58;21217;-90
2021/06/29 16:19:59;;;;;;;2.40;2.30;;;;;;;32.70;26.55;100019.66;5144267;57;21178;-87
2021/06/29 16:25:07;;;;;;;8.28;5.35;;;;;;;32.65;26.04;100009.56;5150041;57;21194;-85
2021/06/29 16:30:14;;;;;;;2.17;2.08;;;;;;;32.58;26.21;99999.97;5240626;56;21560;-85
2021/06/29 16:35:22;;;;;;;2.10;2.00;;;;;;;32.57;26.54;99996.96;5154210;57;22395;-87
2021/06/29 16:40:30;;;;;;;3.35;2.10;;;;;;;32.63;26.69;99993.95;5153831;57;21891;-87
2021/06/29 16:45:34;;;;;;;2.12;2.00;;;;;;;32.64;26.37;99995.59;5240378;56;21568;-85
2021/06/29 16:50:41;;;;;;;2.05;1.82;;;;;;;32.53;26.33;99999.45;5240777;56;22363;-83
2021/06/29 16:55:47;;;;;;;1.92;1.82;;;;;;;32.36;26.21;100002.48;5241123;56;21167;-81
2021/06/29 17:00:53;;;;;;;4.60;2.10;;;;;;;32.31;26.87;100008.49;5154700;57;21595;-84
2021/06/29 17:05:59;;;;;;;2.37;1.92;;;;;;;32.22;27.37;100007.41;5154667;57;21280;-80
2021/06/29 17:11:06;;;;;;;3.83;1.90;;;;;;;32.10;27.44;100013.92;5156999;57;21179;-83
2021/06/29 17:16:12;;;;;;;7.78;2.47;;;;;;;31.90;27.22;100019.40;5164205;57;21199;-80
2021/06/29 17:21:18;;;;;;;2.42;2.00;;;;;;;31.60;27.56;100016.03;5219064;56;21183;-86
2021/06/29 17:26:24;;;;;;;2.85;2.27;;;;;;;31.44;28.20;100015.70;5211771;57;21688;-86
2021/06/29 17:31:30;;;;;;;3.02;2.15;;;;;;;31.30;28.29;100014.02;5212421;57;21226;-82
2021/06/29 17:36:36;;;;;;;4.45;2.50;;;;;;;31.10;28.86;100020.21;5212777;56;21252;-82
2021/06/29 17:41:42;;;;;;;2.20;2.10;;;;;;;30.98;29.35;100016.02;5212723;57;21266;-83
2021/06/29 17:46:48;;;;;;;6.17;2.90;;;;;;;31.01;29.86;100012.77;5209609;57;21183;-84
2021/06/29 17:51:54;;;;;;;11.97;3.20;;;;;;;30.92;30.05;100017.89;5209549;57;21631;-83
2021/06/29 17:56:59;;;;;;;17.75;9.63;;;;;;;30.93;30.21;100011.34;5210171;56;21175;-83
2021/06/29 18:02:05;;;;;;;10.45;7.17;;;;;;;30.99;30.49;100014.94;5210125;57;21139;-80
2021/06/29 18:07:10;;;;;;;13.55;5.80;;;;;;;31.02;30.48;100008.92;5210589;56;21191;-83
2021/06/29 18:12:16;;;;;;;9.58;4.08;;;;;;;31.01;30.52;100016.28;5209257;57;22476;-85
2021/06/29 18:17:23;;;;;;;22.98;4.30;;;;;;;31.01;30.70;100012.19;5216819;57;21122;-83
2021/06/29 18:22:28;;;;;;;20.08;4.28;;;;;;;30.93;31.60;100009.98;5223882;56;21198;-83
2021/06/29 18:27:35;;;;;;;11.85;2.98;;;;;;;30.73;32.45;100010.67;5224720;56;21529;-81
2021/06/29 18:32:41;;;;;;;23.55;4.25;;;;;;;30.52;33.17;100006.70;5210694;55;21178;-82
2021/06/29 18:37:47;;;;;;;8.85;3.22;;;;;;;30.39;33.37;100003.88;5224744;56;21178;-84
2021/06/29 18:42:53;;;;;;;8.83;2.80;;;;;;;30.29;33.95;100005.15;5224669;56;21099;-83
2021/06/29 18:47:59;;;;;;;28.52;5.60;;;;;;;30.11;35.35;100001.44;5224907;56;21185;-83
2021/06/29 18:53:04;;;;;;;19.75;4.47;;;;;;;29.80;36.50;99995.67;5224751;56;21534;-82
2021/06/29 18:58:10;;;;;;;24.35;6.20;;;;;;;29.71;36.95;100006.23;5224572;56;21103;-83
2021/06/29 19:03:15;;;;;;;7.40;2.67;;;;;;;29.57;38.14;99999.55;5224201;56;21223;-83
2021/06/29 19:08:21;;;;;;;5.22;3.33;;;;;;;29.37;39.13;99994.66;5119537;57;21210;-86
2021/06/29 19:13:27;;;;;;;7.95;3.37;;;;;;;29.29;39.78;99986.12;5128765;57;21174;-79
2021/06/29 19:18:33;;;;;;;8.20;3.65;;;;;;;29.08;40.41;99980.13;5144763;57;21492;-81
2021/06/29 19:23:38;;;;;;;8.53;4.70;;;;;;;28.87;41.34;99985.33;5136590;57;21184;-83
2021/06/29 19:28:44;;;;;;;20.55;3.77;;;;;;;28.64;41.85;99985.50;5136907;57;21792;-79
2021/06/29 19:33:50;;;;;;;10.40;3.12;;;;;;;28.52;42.13;100007.91;5135721;57;21512;-82
2021/06/29 19:38:56;;;;;;;15.10;3.92;;;;;;;28.51;42.35;100015.78;5135006;57;21187;-83
2021/06/29 19:44:03;;;;;;;14.53;4.42;;;;;;;28.53;42.44;100014.47;5135932;57;21199;-79
2021/06/29 19:49:09;;;;;;;49.30;5.50;;;;;;;28.53;42.47;100021.80;5135275;57;21132;-77
2021/06/29 19:54:14;;;;;;;7.70;3.90;;;;;;;28.40;42.95;100006.65;5134873;57;21679;-81
2021/06/29 19:59:21;;;;;;;8.93;3.75;;;;;;;28.18;43.14;100010.60;5118029;57;21206;-79
2021/06/29 20:04:27;;;;;;;14.05;4.58;;;;;;;28.08;43.72;100004.17;5115722;57;21686;-80
2021/06/29 20:09:34;;;;;;;13.18;5.10;;;;;;;27.92;44.11;100010.70;5052715;58;21270;-80
2021/06/29 20:14:40;;;;;;;14.23;5.30;;;;;;;27.92;44.28;100020.75;5096627;57;21277;-82
2021/06/29 20:19:46;;;;;;;13.88;4.75;;;;;;;27.84;44.45;100012.45;5115396;57;21084;-78
2021/06/29 20:24:52;;;;;;;16.45;4.72;;;;;;;27.74;44.37;100007.37;5164592;57;21715;-82
2021/06/29 20:29:58;;;;;;;15.72;4.42;;;;;;;27.70;44.83;100009.74;5163712;57;21202;-81
2021/06/29 20:35:04;;;;;;;8.08;4.05;;;;;;;27.68;45.23;100008.33;5164491;57;21135;-78
2021/06/29 20:40:12;;;;;;;12.58;3.50;;;;;;;27.63;45.58;99999.04;5164133;57;21156;-83
2021/06/29 20:45:19;;;;;;;4.37;3.98;;;;;;;27.59;45.90;99986.17;5163648;56;21167;-82
2021/06/29 20:50:26;;;;;;;6.47;3.65;;;;;;;27.59;45.84;99978.84;5163822;57;21159;-81
2021/06/29 20:55:32;;;;;;;10.53;6.58;;;;;;;27.58;45.79;99987.23;5123916;57;21141;-85
2021/06/29 21:00:39;;;;;;;7.47;5.10;;;;;;;27.64;45.77;99989.00;5122055;56;21533;-83
2021/06/29 21:05:44;;;;;;;11.05;6.35;;;;;;;27.62;45.91;99981.09;5132929;57;21151;-84
2021/06/29 21:10:51;;;;;;;10.68;5.17;;;;;;;27.52;45.94;99971.87;5113803;57;21539;-84
2021/06/29 21:15:56;;;;;;;4.87;4.30;;;;;;;27.42;45.96;99961.65;5080322;57;21236;-80
2021/06/29 21:21:02;;;;;;;5.03;4.12;;;;;;;27.36;45.65;99952.27;5078312;57;22129;-80
2021/06/29 21:26:08;;;;;;;7.17;4.25;;;;;;;27.24;45.37;99942.29;5069324;57;21195;-77
2021/06/29 21:31:13;;;;;;;5.92;4.35;;;;;;;27.10;45.50;99938.20;5069820;57;21670;-73
2021/06/29 21:36:21;;;;;;;8.63;4.40;;;;;;;27.08;45.60;99940.87;5069584;57;21253;-76
2021/06/29 21:41:27;;;;;;;14.68;4.35;;;;;;;27.06;45.24;99942.99;5070950;57;21162;-75
2021/06/29 21:46:33;;;;;;;5.83;3.85;;;;;;;27.06;44.56;99936.20;5147444;57;21274;-77
2021/06/29 21:51:39;;;;;;;4.42;4.03;;;;;;;26.99;43.94;99943.14;5069585;58;21192;-76
2021/06/29 21:56:44;;;;;;;5.33;3.60;;;;;;;26.96;43.74;99939.02;5147423;57;21153;-77
2021/06/29 22:01:50;;;;;;;6.12;3.75;;;;;;;26.93;43.65;99931.35;5083077;57;21205;-75
2021/06/29 22:06:59;;;;;;;7.87;3.27;;;;;;;26.89;43.20;99928.78;5233293;56;21160;-74
2021/06/29 22:12:05;;;;;;;5.42;3.50;;;;;;;26.85;42.79;99918.14;5160850;56;21218;-76
2021/06/29 22:17:11;;;;;;;5.12;3.02;;;;;;;26.80;42.79;99915.31;5147364;57;21230;-74
2021/06/29 22:22:17;;;;;;;5.80;2.90;;;;;;;26.73;42.30;99905.14;5127778;57;21537;-75
2021/06/29 22:27:23;;;;;;;3.55;3.25;;;;;;;26.67;42.31;99904.73;5073871;58;21155;-74
2021/06/29 22:32:29;;;;;;;5.72;3.27;;;;;;;26.58;42.34;99908.32;5074103;58;21193;-75
2021/06/29 22:37:34;;;;;;;3.70;3.45;;;;;;;26.52;42.43;99906.58;5074222;58;21170;-74
2021/06/29 22:42:40;;;;;;;7.40;3.40;;;;;;;26.49;42.32;99902.16;5073850;58;22109;-73
2021/06/29 22:47:45;;;;;;;8.28;2.98;;;;;;;26.46;42.67;99891.78;5073849;57;21154;-75
2021/06/29 22:52:51;;;;;;;6.37;3.33;;;;;;;26.38;42.76;99875.88;5073899;58;21171;-73
2021/06/29 22:57:58;;;;;;;3.33;3.00;;;;;;;26.17;42.79;99870.49;5073861;58;21166;-73
2021/06/29 23:03:06;;;;;;;3.42;3.12;;;;;;;25.94;43.50;99864.56;5042623;59;21174;-75
2021/06/29 23:08:11;;;;;;;4.45;3.30;;;;;;;25.90;44.08;99860.13;5047891;58;21191;-74
2021/06/29 23:13:17;;;;;;;7.20;3.10;;;;;;;25.89;44.37;99863.90;5068457;58;21170;-75
2021/06/29 23:18:23;;;;;;;3.62;3.27;;;;;;;25.87;44.63;99861.13;5068256;58;21565;-73
2021/06/29 23:23:28;;;;;;;8.08;3.83;;;;;;;25.76;44.83;99864.13;5095604;57;21645;-75
2021/06/29 23:28:34;;;;;;;3.85;3.45;;;;;;;25.72;44.79;99853.98;5143930;57;21160;-75
2021/06/29 23:33:40;;;;;;;6.50;3.10;;;;;;;25.69;45.02;99851.73;5143998;57;21216;-73
2021/06/29 23:38:46;;;;;;;7.60;3.47;;;;;;;25.66;45.15;99851.70;5143801;57;21152;-73
2021/06/29 23:43:52;;;;;;;10.63;3.67;;;;;;;25.62;44.97;99838.85;5147193;57;21170;-76
2021/06/29 23:48:59;;;;;;;8.75;3.22;;;;;;;25.52;45.00;99825.30;5143298;57;22112;-76
2021/06/29 23:54:05;;;;;;;8.03;3.40;;;;;;;25.25;44.90;99817.31;5143292;57;21101;-74